Time;durP1;ratioP1;P1;durP2;ratioP2;P2;SDS_P1;SDS_P2;PMS_P1;PMS_P2;Temp;Humidity;BMP_temperature;BMP_pressure;BME280_temperature;BME280_humidity;BME280_pressure;Samples;Min_cycle;Max_cycle;Signal;HPM_P1;HPM_P2
2022/04/01 00:01:20;;;;;;;;;;;;;;;16.27;44.54;100727.41;6288000;22;19907;-78
2022/04/01 00:03:46;;;;;;;;;;;;;;;16.27;44.37;100738.66;6314730;22;19907;-78
2022/04/01 00:06:11;;;;;;;;;;;;;;;16.27;44.59;100740.41;6288612;22;19915;-78
2022/04/01 00:08:37;;;;;;;;;;;;;;;16.25;44.60;100751.66;6315305;22;20239;-78
2022/04/01 00:11:02;;;;;;;;;;;;;;;16.24;44.52;100747.34;6261309;22;20300;-78
2022/04/01 00:13:27;;;;;;;;;;;;;;;16.22;44.47;100740.41;6261805;22;20239;-78
2022/04/01 00:15:53;;;;;;;;;;;;;;;16.24;44.58;100747.34;6261326;22;19984;-78
2022/04/01 00:18:18;;;;;;;;;;;;;;;16.24;44.50;100736.06;6288358;22;19911;-78
2022/04/01 00:20:43;;;;;;;;;;;;;;;16.24;44.38;100744.75;6262182;22;19922;-78
2022/04/01 00:23:09;;;;;;;;;;;;;;;16.23;44.47;100742.16;6288345;22;19973;-78
2022/04/01 00:25:34;;;;;;;;;;;;;;;16.22;44.55;100743.00;6262438;22;19910;-78
2022/04/01 00:27:59;;;;;;;;;;;;;;;16.22;44.46;100741.28;6287043;22;20383;-78
2022/04/01 00:30:25;;;;;;;;;;;;;;;16.22;44.42;100735.22;6286363;22;19918;-78
2022/04/01 00:32:50;;;;;;;;;;;;;;;16.22;44.39;100743.00;6261631;22;19985;-78
2022/04/01 00:35:15;;;;;;;;;;;;;;;16.20;44.38;100752.53;6287457;22;19938;-78
2022/04/01 00:37:40;;;;;;;;;;;;;;;16.20;44.49;100747.34;6260680;22;19911;-78
2022/04/01 00:40:06;;;;;;;;;;;;;;;16.20;44.43;100747.34;6259898;22;20239;-77
2022/04/01 00:42:32;;;;;;;;;;;;;;;16.20;44.38;100745.63;6285171;22;19907;-78
2022/04/01 00:44:58;;;;;;;;;;;;;;;16.20;44.22;100747.34;6286562;22;19907;-78
2022/04/01 00:47:24;;;;;;;;;;;;;;;16.19;44.22;100759.47;6261375;22;19986;-78
2022/04/01 00:49:49;;;;;;;;;;;;;;;16.19;44.40;100766.41;6286926;22;19907;-78
2022/04/01 00:52:15;;;;;;;;;;;;;;;16.17;44.32;100766.38;6286946;22;20393;-78
2022/04/01 00:54:42;;;;;;;;;;;;;;;16.18;44.21;100769.88;6314352;22;19988;-78
2022/04/01 00:57:10;;;;;;;;;;;;;;;16.18;44.46;100770.72;6314728;22;19982;-78
2022/04/01 00:59:36;;;;;;;;;;;;;;;16.17;44.20;100765.53;6287235;22;19953;-78
2022/04/01 01:02:01;;;;;;;;;;;;;;;16.16;44.32;100780.25;6261390;22;19910;-78
2022/04/01 01:04:27;;;;;;;;;;;;;;;16.16;44.09;100756.91;6287011;22;20323;-78
2022/04/01 01:06:54;;;;;;;;;;;;;;;16.16;44.12;100776.81;6262032;22;19911;-78
2022/04/01 01:09:20;;;;;;;;;;;;;;;16.16;44.18;100775.06;6286912;22;19910;-78
2022/04/01 01:11:47;;;;;;;;;;;;;;;16.15;44.13;100769.88;6286104;22;19914;-78
2022/04/01 01:14:13;;;;;;;;;;;;;;;16.15;43.96;100775.06;6286674;22;19907;-78
2022/04/01 01:16:40;;;;;;;;;;;;;;;16.13;44.06;100777.66;6260484;22;20216;-78
2022/04/01 01:19:12;;;;;;;;;;;;;;;16.14;44.29;100786.34;6286227;22;20272;-78
2022/04/01 01:21:38;;;;;;;;;;;;;;;16.13;44.05;100780.25;6285939;22;19974;-78
2022/04/01 01:24:08;;;;;;;;;;;;;;;16.12;44.13;100783.72;6313680;22;19999;-78
2022/04/01 01:26:36;;;;;;;;;;;;;;;16.12;44.19;100781.13;6286782;22;20243;-78
2022/04/01 01:29:03;;;;;;;;;;;;;;;16.11;44.19;100779.41;6286584;22;19918;-78
2022/04/01 01:31:28;;;;;;;;;;;;;;;16.11;43.98;100784.59;6313774;22;19962;-78
2022/04/01 01:33:54;;;;;;;;;;;;;;;16.11;44.09;100788.91;6260938;22;19911;-78
2022/04/01 01:36:20;;;;;;;;;;;;;;;16.11;43.55;100786.31;6259857;22;19937;-78
2022/04/01 01:38:45;;;;;;;;;;;;;;;16.10;44.17;100784.63;6286066;22;19911;-78
2022/04/01 01:41:10;;;;;;;;;;;;;;;16.09;44.17;100778.56;6260715;22;19911;-78
2022/04/01 01:43:36;;;;;;;;;;;;;;;16.10;44.10;100790.66;6285992;22;19914;-78
2022/04/01 01:46:01;;;;;;;;;;;;;;;16.08;44.02;100792.41;6286337;22;19957;-78
2022/04/01 01:48:26;;;;;;;;;;;;;;;16.09;44.07;100790.66;6285431;22;19911;-78
2022/04/01 01:56:19;;;;;;;;;;;;;;;16.07;43.91;100798.47;6290344;22;19922;-78
2022/04/01 01:58:45;;;;;;;;;;;;;;;16.07;44.00;100805.38;6259663;22;19910;-78
2022/04/01 02:01:10;;;;;;;;;;;;;;;16.07;44.10;100801.06;6285629;22;19917;-78
2022/04/01 02:03:36;;;;;;;;;;;;;;;16.06;43.91;100808.84;6259649;22;19911;-78
2022/04/01 02:06:03;;;;;;;;;;;;;;;16.07;44.02;100806.25;6285791;22;19907;-78
2022/04/01 02:08:28;;;;;;;;;;;;;;;16.06;44.02;100803.66;6285817;22;19933;-78
2022/04/01 02:10:53;;;;;;;;;;;;;;;16.06;43.93;100811.44;6285074;22;19919;-78
2022/04/01 02:13:18;;;;;;;;;;;;;;;16.05;44.11;100813.19;6259035;22;19923;-78
2022/04/01 02:15:44;;;;;;;;;;;;;;;16.04;43.86;100809.72;6284706;22;19972;-78
2022/04/01 02:18:10;;;;;;;;;;;;;;;16.04;44.03;100812.31;6258985;22;19922;-78
2022/04/01 02:20:36;;;;;;;;;;;;;;;16.04;44.11;100814.91;6311854;22;19911;-78
2022/04/01 02:23:01;;;;;;;;;;;;;;;16.03;44.02;100820.97;6259623;22;19917;-78
2022/04/01 02:25:27;;;;;;;;;;;;;;;16.03;43.85;100825.31;6285313;22;19907;-78
2022/04/01 02:27:52;;;;;;;;;;;;;;;16.03;43.81;100826.16;6285556;22;19956;-77
2022/04/01 02:30:18;;;;;;;;;;;;;;;16.02;43.79;100816.63;6260729;22;19922;-78
2022/04/01 02:32:43;;;;;;;;;;;;;;;16.01;43.95;100830.50;6285868;22;20005;-78
2022/04/01 02:35:09;;;;;;;;;;;;;;;16.02;44.11;100826.16;6259668;22;19911;-78
2022/04/01 02:37:35;;;;;;;;;;;;;;;16.02;44.00;100827.00;6312544;22;19918;-78
2022/04/01 02:40:01;;;;;;;;;;;;;;;16.02;44.05;100839.13;6284621;22;19907;-78
2022/04/01 02:42:26;;;;;;;;;;;;;;;16.02;43.65;100846.94;6312960;22;19913;-78
2022/04/01 02:44:51;;;;;;;;;;;;;;;16.01;43.89;100846.06;6259917;22;19950;-78
2022/04/01 02:47:17;;;;;;;;;;;;;;;16.01;44.07;100850.41;6286010;22;19941;-78
2022/04/01 02:49:42;;;;;;;;;;;;;;;16.01;43.97;100851.25;6259487;22;19911;-78
2022/04/01 02:52:08;;;;;;;;;;;;;;;15.99;43.81;100849.53;6259940;22;20320;-78
2022/04/01 02:54:34;;;;;;;;;;;;;;;16.00;43.82;100856.44;6284973;22;19907;-78
2022/04/01 02:57:00;;;;;;;;;;;;;;;15.99;43.97;100862.53;6285898;22;20324;-78
2022/04/01 02:59:25;;;;;;;;;;;;;;;15.99;44.02;100855.59;6285226;22;19907;-78
2022/04/01 03:01:51;;;;;;;;;;;;;;;15.99;43.74;100860.78;6260106;22;19927;-77
2022/04/01 03:04:16;;;;;;;;;;;;;;;15.99;44.02;100865.13;6260422;22;19918;-78
2022/04/01 03:06:43;;;;;;;;;;;;;;;15.98;43.99;100868.56;6260915;22;19960;-78
2022/04/01 03:09:08;;;;;;;;;;;;;;;15.99;43.81;100873.75;6287180;22;19914;-78
2022/04/01 03:11:36;;;;;;;;;;;;;;;15.98;43.99;100863.38;6286865;22;19910;-78
2022/04/01 03:14:01;;;;;;;;;;;;;;;15.97;43.82;100872.03;6286583;22;20268;-78
2022/04/01 03:16:26;;;;;;;;;;;;;;;15.96;43.92;100878.97;6260818;22;19926;-78
2022/04/01 03:18:53;;;;;;;;;;;;;;;15.95;44.02;100868.59;6260334;22;19917;-78
2022/04/01 03:21:18;;;;;;;;;;;;;;;15.95;43.69;100885.00;6285290;22;20377;-78
2022/04/01 03:23:44;;;;;;;;;;;;;;;15.95;43.88;100872.03;6259853;22;19915;-78
2022/04/01 03:26:09;;;;;;;;;;;;;;;15.95;43.91;100877.22;6259951;22;19907;-78
2022/04/01 03:28:35;;;;;;;;;;;;;;;15.94;43.85;100874.63;6285737;22;19910;-78
2022/04/01 03:31:03;;;;;;;;;;;;;;;15.94;43.86;100874.63;6285979;22;19934;-78
2022/04/01 03:33:28;;;;;;;;;;;;;;;15.94;43.78;100885.00;6285664;22;19929;-78
2022/04/01 03:35:54;;;;;;;;;;;;;;;15.94;43.73;100885.91;6284388;22;19911;-78
2022/04/01 03:38:19;;;;;;;;;;;;;;;15.94;43.89;100879.81;6283758;22;19969;-78
2022/04/01 03:40:47;;;;;;;;;;;;;;;15.94;43.83;100885.00;6282636;22;19981;-78
2022/04/01 03:43:12;;;;;;;;;;;;;;;15.93;43.74;100889.34;6282688;22;20216;-77
2022/04/01 03:45:38;;;;;;;;;;;;;;;15.93;43.84;100885.88;6257369;22;19979;-78
2022/04/01 03:48:12;;;;;;;;;;;;;;;15.93;43.62;100896.28;6282933;22;19913;-78
2022/04/01 03:50:38;;;;;;;;;;;;;;;15.90;43.66;100891.09;6285191;22;19910;-77
2022/04/01 03:53:05;;;;;;;;;;;;;;;15.91;43.57;100891.06;6284334;22;19907;-78
2022/04/01 03:55:31;;;;;;;;;;;;;;;15.91;43.71;100900.59;6283199;22;19907;-78
2022/04/01 03:58:00;;;;;;;;;;;;;;;15.91;43.70;100904.03;6257358;22;20342;-77
2022/04/01 04:00:26;;;;;;;;;;;;;;;15.91;43.44;100906.66;6282774;22;19985;-78
2022/04/01 04:02:51;;;;;;;;;;;;;;;15.91;43.80;100910.97;6257726;22;19999;-78
2022/04/01 04:05:19;;;;;;;;;;;;;;;15.91;43.63;100908.38;6283373;22;19929;-78
2022/04/01 04:07:45;;;;;;;;;;;;;;;15.90;43.60;100910.13;6257759;22;19915;-78
2022/04/01 04:10:10;;;;;;;;;;;;;;;15.90;43.58;100904.94;6257230;22;19910;-78
2022/04/01 04:12:35;;;;;;;;;;;;;;;15.89;43.71;100918.75;6283238;22;19907;-78
2022/04/01 04:15:01;;;;;;;;;;;;;;;15.90;43.64;100917.06;6283951;22;19918;-78
2022/04/01 04:17:27;;;;;;;;;;;;;;;15.89;43.43;100917.91;6311212;22;19960;-78
2022/04/01 04:19:52;;;;;;;;;;;;;;;15.90;43.59;100909.25;6284831;22;19911;-78
2022/04/01 04:22:24;;;;;;;;;;;;;;;15.90;43.67;100924.84;6285305;22;19907;-78
2022/04/01 04:24:53;;;;;;;;;;;;;;;15.89;43.52;100917.91;6312544;22;19985;-78
2022/04/01 04:27:23;;;;;;;;;;;;;;;15.88;43.65;100918.78;6286264;22;19914;-78
2022/04/01 04:29:50;;;;;;;;;;;;;;;15.87;43.37;100917.03;6285797;22;19907;-78
2022/04/01 04:32:23;;;;;;;;;;;;;;;15.88;43.57;100923.97;6260902;22;19966;-78
2022/04/01 04:34:50;;;;;;;;;;;;;;;15.87;43.45;100924.81;6284228;22;19913;-78
2022/04/01 04:37:15;;;;;;;;;;;;;;;15.87;43.53;100937.78;6313045;22;20312;-78
2022/04/01 04:39:42;;;;;;;;;;;;;;;15.86;43.55;100936.06;6285135;22;19957;-78
2022/04/01 04:42:09;;;;;;;;;;;;;;;15.85;43.36;100937.78;6313073;22;19968;-78
2022/04/01 04:44:35;;;;;;;;;;;;;;;15.86;43.55;100939.53;6259330;22;19915;-78
2022/04/01 04:47:01;;;;;;;;;;;;;;;15.86;43.51;100946.47;6285255;22;19929;-78
2022/04/01 04:49:27;;;;;;;;;;;;;;;15.85;43.45;100950.75;6284087;22;19906;-78
2022/04/01 04:51:53;;;;;;;;;;;;;;;15.84;43.45;100955.09;6311827;22;19919;-78
2022/04/01 04:54:20;;;;;;;;;;;;;;;15.85;43.35;100958.53;6283045;22;20271;-78
2022/04/01 04:56:45;;;;;;;;;;;;;;;15.84;43.25;100967.22;6284110;22;20239;-78
2022/04/01 04:59:12;;;;;;;;;;;;;;;15.84;43.36;100967.22;6259538;22;19911;-78
2022/04/01 05:01:58;;;;;;;;;;;;;;;15.84;43.48;100973.25;6260500;22;20316;-78
2022/04/01 05:04:43;;;;;;;;;;;;;;;15.84;43.24;100970.66;6285371;22;19913;-78
2022/04/01 05:07:15;;;;;;;;;;;;;;;15.84;43.64;100980.19;6288623;22;19907;-80
2022/04/01 05:09:52;;;;;;;;;;;;;;;15.84;43.39;100993.16;6287617;22;19914;-81
2022/04/01 05:12:17;;;;;;;;;;;;;;;15.85;43.56;100987.09;6291012;22;19922;-81
2022/04/01 05:19:56;;;;;;;;;;;;;;;15.86;43.63;100998.34;6295925;22;19919;-80
2022/04/01 05:22:25;;;;;;;;;;;;;;;15.86;43.90;101004.41;6315470;22;20323;-80
2022/04/01 05:24:52;;;;;;;;;;;;;;;15.88;43.97;101009.59;6264433;22;19910;-80
2022/04/01 05:27:36;;;;;;;;;;;;;;;15.89;44.09;101016.50;6292261;22;19977;-81
2022/04/01 05:30:13;;;;;;;;;;;;;;;15.89;44.28;101017.38;6322683;22;19907;-81
2022/04/01 05:32:39;;;;;;;;;;;;;;;15.89;44.05;101017.38;6321304;22;19911;-81
2022/04/01 05:35:06;;;;;;;;;;;;;;;15.90;44.22;101016.53;6289803;22;20236;-81
2022/04/01 05:37:32;;;;;;;;;;;;;;;15.91;44.22;101020.84;6316820;22;20277;-81
2022/04/01 05:39:58;;;;;;;;;;;;;;;15.93;44.13;101033.81;6289532;22;19972;-81
2022/04/01 05:42:25;;;;;;;;;;;;;;;15.93;44.21;101034.69;6289859;22;20342;-81
2022/04/01 05:44:51;;;;;;;;;;;;;;;15.94;44.28;101044.22;6288609;22;19993;-81
2022/04/01 05:47:17;;;;;;;;;;;;;;;15.95;44.39;101056.31;6290528;22;19911;-81
2022/04/01 05:49:44;;;;;;;;;;;;;;;15.96;44.37;101050.28;6289487;22;19907;-80
2022/04/01 05:52:10;;;;;;;;;;;;;;;15.97;44.56;101054.59;6289807;22;19937;-81
2022/04/01 05:54:37;;;;;;;;;;;;;;;15.99;44.35;101049.41;6290402;22;19911;-80
2022/04/01 05:57:03;;;;;;;;;;;;;;;15.99;44.45;101060.66;6318087;22;19976;-81
2022/04/01 05:59:28;;;;;;;;;;;;;;;16.01;44.58;101050.28;6289711;22;19910;-81
2022/04/01 06:02:00;;;;;;;;;;;;;;;16.01;44.57;101066.69;6293479;22;19912;-82
2022/04/01 06:04:25;;;;;;;;;;;;;;;16.02;44.47;101054.59;6295305;22;20320;-81
2022/04/01 06:06:54;;;;;;;;;;;;;;;16.02;44.35;101065.81;6291042;22;19907;-79
2022/04/01 06:09:22;;;;;;;;;;;;;;;16.03;44.58;101067.56;6287595;22;19954;-78
2022/04/01 06:11:53;;;;;;;;;;;;;;;16.04;44.49;101071.03;6330826;22;19950;-79
2022/04/01 06:14:42;;;;;;;;;;;;;;;16.06;44.60;101073.63;6287003;22;19907;-80
2022/04/01 06:17:17;;;;;;;;;;;;;;;16.07;44.47;101073.66;6287813;22;19911;-80
2022/04/01 06:19:46;;;;;;;;;;;;;;;16.08;44.48;101072.75;6289935;22;19915;-79
2022/04/01 06:22:16;;;;;;;;;;;;;;;16.09;44.49;101074.50;6291494;22;19968;-79
2022/04/01 06:25:00;;;;;;;;;;;;;;;16.11;44.54;101072.75;6317021;22;19907;-81
2022/04/01 06:27:46;;;;;;;;;;;;;;;16.26;45.07;101079.69;6329530;22;20347;-80
2022/04/01 06:36:24;;;;;;;;;;;;;;;16.52;45.03;101092.66;6311816;22;19914;-80
2022/04/01 06:38:54;;;;;;;;;;;;;;;16.55;44.69;101091.78;6283080;22;19907;-78
2022/04/01 06:41:21;;;;;;;;;;;;;;;16.57;44.71;101085.75;6314319;22;19932;-80
2022/04/01 06:43:47;;;;;;;;;;;;;;;16.59;44.76;101096.09;6299822;22;20288;-80
2022/04/01 06:46:12;;;;;;;;;;;;;;;16.60;44.63;101098.72;6299667;22;19907;-80
2022/04/01 06:48:38;;;;;;;;;;;;;;;16.61;44.71;101103.06;6291362;22;19910;-81
2022/04/01 06:51:03;;;;;;;;;;;;;;;16.64;44.66;101109.97;6316531;22;19934;-81
2022/04/01 06:53:29;;;;;;;;;;;;;;;16.66;44.52;101109.09;6289106;22;19911;-81
2022/04/01 06:55:54;;;;;;;;;;;;;;;16.74;44.21;101114.28;6288456;22;20300;-79
2022/04/01 06:58:20;;;;;;;;;;;;;;;16.85;44.15;101112.59;6288681;22;19911;-79
2022/04/01 07:00:45;;;;;;;;;;;;;;;16.97;43.83;101116.88;6316150;22;20290;-79
2022/04/01 07:03:11;;;;;;;;;;;;;;;17.11;43.53;101113.38;6315476;22;19914;-80
2022/04/01 07:05:37;;;;;;;;;;;;;;;17.17;43.18;101116.81;6314916;22;20217;-81
2022/04/01 07:08:03;;;;;;;;;;;;;;;17.27;42.91;101120.25;6289634;22;19956;-81
2022/04/01 07:10:29;;;;;;;;;;;;;;;17.32;42.77;101128.91;6291943;22;19920;-80
2022/04/01 07:12:54;;;;;;;;;;;;;;;17.35;42.75;101125.41;6288806;22;20232;-81
2022/04/01 07:15:19;;;;;;;;;;;;;;;17.50;42.53;101127.94;6289104;22;19910;-80
2022/04/01 07:17:46;;;;;;;;;;;;;;;17.62;42.07;101129.66;6289784;22;19907;-81
2022/04/01 07:20:12;;;;;;;;;;;;;;;17.77;42.01;101139.09;6292268;22;19919;-79
2022/04/01 07:22:40;;;;;;;;;;;;;;;17.91;41.71;101128.66;6317915;22;19942;-82
2022/04/01 07:25:06;;;;;;;;;;;;;;;18.09;41.45;101126.78;6291428;22;19903;-82
2022/04/01 07:27:33;;;;;;;;;;;;;;;18.20;41.10;101134.50;6291498;22;20013;-82
2022/04/01 07:29:58;;;;;;;;;;;;;;;18.28;40.64;101137.91;6290247;22;20359;-81
2022/04/01 07:32:29;;;;;;;;;;;;;;;18.34;40.53;101141.38;6289187;22;19911;-81
2022/04/01 07:34:55;;;;;;;;;;;;;;;18.26;40.65;101144.88;6288846;22;19907;-81
2022/04/01 07:37:23;;;;;;;;;;;;;;;18.04;40.88;101151.13;6290309;22;19907;-80
2022/04/01 07:39:49;;;;;;;;;;;;;;;17.81;41.47;101152.09;6288538;22;19911;-81
2022/04/01 07:42:25;;;;;;;;;;;;;;;17.63;41.86;101162.59;6288179;22;19907;-81
2022/04/01 07:45:00;;;;;;;;;;;;;;;17.44;42.02;101164.41;6284437;22;19985;-80
2022/04/01 07:48:03;;;;;;;;;;;;;;;17.33;42.33;101167.03;6303213;22;19918;-82
2022/04/01 07:50:47;;;;;;;;;;;;;;;17.27;42.90;101167.06;6273088;22;19982;-82
2022/04/01 08:05:37;;;;;;;;;;;;;;;17.11;42.72;101186.16;6175737;23;19943;-83
2022/04/01 08:08:31;;;;;;;;;;;;;;;17.09;42.85;101185.31;6170077;23;19971;-82
2022/04/01 08:11:07;;;;;;;;;;;;;;;17.07;42.83;101187.91;6145855;23;19913;-82
2022/04/01 08:13:51;;;;;;;;;;;;;;;17.05;42.60;101187.94;6196016;23;20321;-81
2022/04/01 09:42:43;;;;;;;;;;;;;;;17.59;41.13;101296.19;6279597;22;19923;-81
2022/04/01 09:45:39;;;;;;;;;;;;;;;;;;;;;
2022/04/01 09:51:38;;;;;;;;;;;;;;;17.52;41.30;101307.50;6290715;22;19965;-81
2022/04/01 09:54:32;;;;;;;;;;;;;;;17.52;41.24;101310.09;6188255;23;19939;-81
2022/04/01 10:12:26;;;;;;;;;;;;;;;17.45;41.40;101327.44;6110038;23;19920;-82
2022/04/01 10:15:15;;;;;;;;;;;;;;;17.44;41.37;101326.59;6082428;23;19916;-82
2022/04/01 10:21:05;;;;;;;;;;;;;;;17.42;41.41;101327.44;6078407;23;19954;-81
2022/04/01 10:26:35;;;;;;;;;;;;;;;17.41;41.16;101338.72;6170249;23;19915;-81
2022/04/01 10:37:40;;;;;;;;;;;;;;;17.35;41.47;101343.94;6307838;22;19941;-79
2022/04/01 10:40:06;;;;;;;;;;;;;;;17.34;41.27;101350.88;6313044;22;19934;-80
2022/04/01 10:42:39;;;;;;;;;;;;;;;17.33;41.49;101351.72;6298763;22;19911;-81
2022/04/01 10:45:21;;;;;;;;;;;;;;;17.31;41.60;101348.28;6290492;22;19929;-80
2022/04/01 10:53:33;;;;;;;;;;;;;;;17.31;41.69;101356.09;6318948;22;19914;-81
2022/04/01 10:56:37;;;;;;;;;;;;;;;17.30;41.71;101354.34;6292084;22;19926;-81
2022/04/01 10:59:04;;;;;;;;;;;;;;;17.29;41.61;101352.63;6140179;23;20250;-80
2022/04/01 11:01:30;;;;;;;;;;;;;;;17.30;41.79;101366.50;6142697;23;19939;-80
2022/04/01 11:04:24;;;;;;;;;;;;;;;17.29;41.69;101355.22;6229918;22;19908;-82
2022/04/01 11:06:53;;;;;;;;;;;;;;;17.28;41.87;101354.34;6266204;22;20026;-81
2022/04/01 11:09:34;;;;;;;;;;;;;;;17.27;41.70;101362.16;6272421;22;19920;-81
2022/04/01 11:12:15;;;;;;;;;;;;;;;17.27;41.79;101354.34;6302127;22;19899;-83
2022/04/01 11:15:12;;;;;;;;;;;;;;;17.26;41.90;101353.47;6265082;22;19907;-81
2022/04/01 11:17:37;;;;;;;;;;;;;;;17.27;42.01;101357.81;6261940;22;19907;-81
2022/04/01 11:20:06;;;;;;;;;;;;;;;17.27;41.72;101362.16;6288291;22;19911;-81
2022/04/01 11:22:37;;;;;;;;;;;;;;;17.27;41.89;101369.97;6287634;22;19908;-81
2022/04/01 11:25:03;;;;;;;;;;;;;;;17.26;41.96;101378.63;6260274;22;19907;-81
2022/04/01 11:27:28;;;;;;;;;;;;;;;17.25;42.02;101372.56;6236840;22;19994;-81
2022/04/01 11:30:03;;;;;;;;;;;;;;;17.25;41.87;101371.69;6289607;22;19915;-81
2022/04/01 11:32:28;;;;;;;;;;;;;;;17.26;41.79;101381.22;6292354;22;19949;-81
2022/04/01 11:34:58;;;;;;;;;;;;;;;17.25;41.76;101380.34;6242929;22;19911;-82
2022/04/01 11:37:24;;;;;;;;;;;;;;;17.26;41.65;101379.47;6297891;22;19993;-81
2022/04/01 11:39:49;;;;;;;;;;;;;;;17.27;41.82;101381.22;6292653;22;19915;-81
2022/04/01 11:42:15;;;;;;;;;;;;;;;17.26;41.90;101382.06;6267660;22;19907;-82
2022/04/01 11:44:52;;;;;;;;;;;;;;;17.27;41.70;101389.03;6268313;22;19907;-81
2022/04/01 11:47:24;;;;;;;;;;;;;;;17.27;41.88;101383.81;6269914;22;19914;-81
2022/04/01 11:50:04;;;;;;;;;;;;;;;17.28;41.65;101387.28;6268450;22;19907;-81
2022/04/01 11:52:43;;;;;;;;;;;;;;;17.24;41.77;101386.41;6293940;22;19937;-81
2022/04/01 11:55:11;;;;;;;;;;;;;;;17.22;41.77;101388.16;6266078;22;19907;-81
2022/04/01 11:57:37;;;;;;;;;;;;;;;17.27;41.82;101385.56;6263453;22;19938;-81
2022/04/01 12:00:08;;;;;;;;;;;;;;;17.29;41.85;101402.03;6290073;22;19990;-81
2022/04/01 12:02:35;;;;;;;;;;;;;;;17.31;41.64;101395.09;6263390;22;19935;-81
2022/04/01 12:05:00;;;;;;;;;;;;;;;17.35;41.57;101394.22;6287369;22;19923;-81
2022/04/01 12:10:19;;;;;;;;;;;;;;;17.41;41.38;101396.81;6273455;22;19955;-82
2022/04/01 12:12:58;;;;;;;;;;;;;;;17.45;41.41;101400.31;6250651;22;19903;-81
2022/04/01 12:15:30;;;;;;;;;;;;;;;17.50;41.36;101397.69;6272218;22;19929;-82
2022/04/01 12:17:56;;;;;;;;;;;;;;;17.48;41.23;101403.78;6266163;22;19891;-81
2022/04/01 12:20:21;;;;;;;;;;;;;;;17.47;41.21;101391.63;6266726;22;19934;-81
2022/04/01 12:22:46;;;;;;;;;;;;;;;17.46;41.24;101413.31;6241495;22;20004;-81
2022/04/01 12:25:12;;;;;;;;;;;;;;;17.46;41.48;101405.53;6242022;22;19912;-82
2022/04/01 12:27:53;;;;;;;;;;;;;;;17.45;41.40;101405.50;6269622;22;19938;-82
2022/04/01 12:30:30;;;;;;;;;;;;;;;17.49;41.18;101399.44;6296518;22;20233;-82
2022/04/01 12:32:56;;;;;;;;;;;;;;;17.52;41.24;101403.78;6270456;22;19913;-82
2022/04/01 12:35:24;;;;;;;;;;;;;;;17.53;41.32;101405.50;6270878;22;19907;-82
2022/04/01 12:38:07;;;;;;;;;;;;;;;17.50;41.17;101405.50;6269396;22;19907;-82
2022/04/01 12:40:45;;;;;;;;;;;;;;;17.49;41.20;101409.84;6270932;22;19926;-82
2022/04/01 12:43:29;;;;;;;;;;;;;;;17.49;41.08;101409.84;6295577;22;19929;-82
2022/04/01 12:46:02;;;;;;;;;;;;;;;17.49;41.20;101404.66;6268978;22;19931;-82
2022/04/01 12:48:28;;;;;;;;;;;;;;;17.47;41.10;101408.97;6267791;22;19934;-81
2022/04/01 12:50:58;;;;;;;;;;;;;;;17.47;41.05;101404.63;6241848;22;19926;-82
2022/04/01 12:53:23;;;;;;;;;;;;;;;17.48;41.13;101411.59;6267752;22;20050;-82
2022/04/01 12:55:49;;;;;;;;;;;;;;;17.48;40.97;101423.72;6267541;22;19895;-81
2022/04/01 12:58:14;;;;;;;;;;;;;;;17.46;41.18;101412.44;6226725;22;19919;-79
2022/04/01 13:00:40;;;;;;;;;;;;;;;17.45;40.96;101411.56;6264213;22;19931;-81
2022/04/01 13:03:05;;;;;;;;;;;;;;;17.42;41.04;101413.28;6293379;22;19907;-79
2022/04/01 13:05:52;;;;;;;;;;;;;;;17.43;41.13;101417.66;6270258;22;19918;-82
2022/04/01 13:11:54;;;;;;;;;;;;;;;17.39;41.28;101414.16;6290761;22;19917;-82
2022/04/01 13:17:42;;;;;;;;;;;;;;;17.41;41.12;101415.03;6239492;23;19946;-82
2022/04/01 13:20:10;;;;;;;;;;;;;;;17.38;41.41;101414.19;6251177;22;19930;-82
2022/04/01 13:22:38;;;;;;;;;;;;;;;17.38;41.27;101433.25;6310821;22;19899;-83
2022/04/01 13:25:08;;;;;;;;;;;;;;;17.38;41.35;101415.06;6310125;22;19899;-84
2022/04/01 13:30:12;;;;;;;;;;;;;;;17.36;41.31;101426.31;6280258;22;19925;-81
2022/04/01 13:33:00;;;;;;;;;;;;;;;17.34;41.26;101425.47;6306020;22;19911;-81
2022/04/01 13:35:25;;;;;;;;;;;;;;;17.35;41.48;101414.16;6303486;22;19922;-81
2022/04/01 13:37:53;;;;;;;;;;;;;;;17.37;41.21;101412.44;6306924;22;19929;-82
2022/04/01 13:40:18;;;;;;;;;;;;;;;17.39;41.11;101416.78;6301905;22;19907;-81
2022/04/01 13:42:44;;;;;;;;;;;;;;;17.35;41.31;101416.78;6328509;22;19907;-81
2022/04/01 13:45:10;;;;;;;;;;;;;;;17.32;41.19;101419.38;6331237;22;19907;-81
2022/04/01 13:47:35;;;;;;;;;;;;;;;17.32;41.21;101411.56;6306911;22;19913;-81
2022/04/01 13:50:01;;;;;;;;;;;;;;;17.33;41.18;101419.34;6297792;22;19927;-80
2022/04/01 13:52:29;;;;;;;;;;;;;;;17.34;41.24;101423.72;6301468;22;19935;-81
2022/04/01 13:55:00;;;;;;;;;;;;;;;17.36;41.28;101423.72;6277995;22;19910;-81
2022/04/01 13:57:26;;;;;;;;;;;;;;;17.37;41.18;101418.50;6279549;22;19917;-81
2022/04/01 13:59:51;;;;;;;;;;;;;;;17.38;41.21;101422.00;6301161;22;19906;-81
2022/04/01 14:02:17;;;;;;;;;;;;;;;17.39;41.20;101421.97;6331232;22;19907;-80
2022/04/01 14:04:54;;;;;;;;;;;;;;;17.28;41.28;101431.50;6308411;22;19918;-83
2022/04/01 14:20:06;;;;;;;;;;;;;;;17.18;41.65;101433.25;6336293;22;19937;-83
2022/04/01 14:22:51;;;;;;;;;;;;;;;17.16;41.54;101434.97;6181879;23;19897;-84
2022/04/01 14:28:47;;;;;;;;;;;;;;;17.14;41.52;101441.91;6123685;23;19933;-84
2022/04/01 14:47:26;;;;;;;;;;;;;;;17.19;41.73;101424.56;5981628;23;20386;-84
2022/04/01 15:05:35;;;;;;;;;;;;;;;17.15;41.66;101433.22;6214538;23;19923;-84
2022/04/01 15:11:24;;;;;;;;;;;;;;;17.17;41.75;101446.22;6213865;23;19915;-83
2022/04/01 15:44:51;;;;;;;;;;;;;;;17.20;41.04;101462.72;6208456;22;19974;-83
2022/04/01 17:23:24;;;;;;;;;;;;;;;17.34;41.12;101577.22;6256056;22;19933;-80
2022/04/01 17:28:44;;;;;;;;;;;;;;;17.37;41.34;101579.81;6315197;22;19919;-82
2022/04/01 18:11:11;;;;;;;;;;;;;;;17.43;41.73;101611.06;6254223;22;20043;-80
2022/04/01 18:29:32;;;;;;;;;;;;;;;17.26;42.05;101652.59;6324583;22;19992;-81
2022/04/01 18:32:17;;;;;;;;;;;;;;;17.26;42.06;101659.53;6305399;22;19922;-84
2022/04/01 18:35:02;;;;;;;;;;;;;;;17.25;42.12;101668.22;6308828;22;19899;-83
2022/04/01 20:54:15;;;;;;;;;;;;;;;16.92;41.55;101768.56;6296592;22;19926;-83
2022/04/01 20:57:02;;;;;;;;;;;;;;;16.91;41.56;101764.22;6271247;23;19924;-81
2022/04/01 20:59:28;;;;;;;;;;;;;;;16.92;41.42;101767.66;6240413;23;19919;-81
2022/04/01 21:30:57;;;;;;;;;;;;;;;16.83;41.67;101771.06;6310281;22;19903;-79
2022/04/01 21:33:23;;;;;;;;;;;;;;;16.81;41.43;101772.78;6323743;22;19911;-79
2022/04/01 21:35:48;;;;;;;;;;;;;;;16.76;41.45;101770.13;6298292;22;19911;-79
2022/04/01 21:38:13;;;;;;;;;;;;;;;16.74;41.60;101766.63;6269177;22;19955;-79
2022/04/01 21:40:39;;;;;;;;;;;;;;;16.71;41.57;101765.75;6294510;22;19918;-79
2022/04/01 21:43:04;;;;;;;;;;;;;;;16.69;41.54;101775.25;6321552;22;19993;-79
2022/04/01 21:45:31;;;;;;;;;;;;;;;16.67;41.68;101775.22;6266771;22;22211;-79
2022/04/01 21:47:57;;;;;;;;;;;;;;;16.65;41.49;101776.94;6268075;22;19918;-79
2022/04/01 21:50:22;;;;;;;;;;;;;;;16.63;41.65;101771.72;6293866;22;20220;-79
2022/04/01 21:52:47;;;;;;;;;;;;;;;16.62;41.55;101780.41;6293276;22;19910;-79
2022/04/01 21:55:13;;;;;;;;;;;;;;;16.61;41.64;101778.66;6295520;22;19917;-79
2022/04/01 21:57:38;;;;;;;;;;;;;;;16.61;41.63;101775.16;6269195;22;19911;-79
2022/04/01 22:00:12;;;;;;;;;;;;;;;16.60;41.45;101779.50;6268670;22;19993;-79
2022/04/01 22:02:38;;;;;;;;;;;;;;;16.60;41.63;101781.25;6296204;22;19914;-79
2022/04/01 22:05:03;;;;;;;;;;;;;;;16.60;41.60;101781.25;6296864;22;19910;-79
2022/04/01 22:07:28;;;;;;;;;;;;;;;16.57;41.48;101783.78;6272708;22;20234;-79
2022/04/01 22:09:54;;;;;;;;;;;;;;;16.56;41.71;101769.94;6298196;22;19931;-79
2022/04/01 22:12:19;;;;;;;;;;;;;;;16.56;41.58;101769.94;6272680;22;19919;-79
2022/04/01 22:14:44;;;;;;;;;;;;;;;16.55;41.73;101778.59;6272530;22;20384;-79
2022/04/01 22:17:10;;;;;;;;;;;;;;;16.55;41.63;101776.00;6271517;22;19973;-79